sensor_id;sensor_type;location;lat;lon;timestamp;P1;durP1;ratioP1;P2;durP2;ratioP2
13057;SDS011;6595;49.578;11.012;2024-03-07T00:00:24;29.0;;;13.7;;
13057;SDS011;6595;49.578;11.012;2024-03-07T00:02:23;29.0;;;13.7;;
13057;SDS011;6595;49.578;11.012;2024-03-07T00:04:23;28.0;;;13.0;;
13057;SDS011;6595;49.578;11.012;2024-03-07T00:06:23;23.9;;;12.0;;
13057;SDS011;6595;49.578;11.012;2024-03-07T00:08:24;23.0;;;13.0;;
13057;SDS011;6595;49.578;11.012;2024-03-07T00:10:23;23.0;;;13.0;;
13057;SDS011;6595;49.578;11.012;2024-03-07T00:12:23;26.2;;;13.6;;
13057;SDS011;6595;49.578;11.012;2024-03-07T00:14:23;26.2;;;13.6;;
13057;SDS011;6595;49.578;11.012;2024-03-07T00:16:23;24.7;;;12.2;;
13057;SDS011;6595;49.578;11.012;2024-03-07T00:18:23;24.6;;;12.9;;
13057;SDS011;6595;49.578;11.012;2024-03-07T00:20:23;22.3;;;12.1;;
13057;SDS011;6595;49.578;11.012;2024-03-07T00:22:24;23.7;;;12.3;;
13057;SDS011;6595;49.578;11.012;2024-03-07T00:24:24;23.7;;;12.3;;
13057;SDS011;6595;49.578;11.012;2024-03-07T00:26:23;23.5;;;11.9;;
13057;SDS011;6595;49.578;11.012;2024-03-07T00:28:24;24.9;;;12.1;;
13057;SDS011;6595;49.578;11.012;2024-03-07T00:30:24;23.8;;;12.7;;
13057;SDS011;6595;49.578;11.012;2024-03-07T00:32:23;23.8;;;12.7;;
13057;SDS011;6595;49.578;11.012;2024-03-07T00:34:23;22.9;;;12.1;;
13057;SDS011;6595;49.578;11.012;2024-03-07T00:36:24;20.7;;;12.1;;
13057;SDS011;6595;49.578;11.012;2024-03-07T00:38:23;25.0;;;12.0;;
13057;SDS011;6595;49.578;11.012;2024-03-07T00:40:23;25.0;;;12.0;;
13057;SDS011;6595;49.578;11.012;2024-03-07T00:42:23;23.8;;;12.1;;
13057;SDS011;6595;49.578;11.012;2024-03-07T00:44:23;25.0;;;12.2;;
13057;SDS011;6595;49.578;11.012;2024-03-07T00:46:23;23.9;;;12.0;;
13057;SDS011;6595;49.578;11.012;2024-03-07T00:48:24;23.7;;;12.5;;
13057;SDS011;6595;49.578;11.012;2024-03-07T00:50:23;23.7;;;12.5;;
13057;SDS011;6595;49.578;11.012;2024-03-07T00:52:23;24.8;;;12.1;;
13057;SDS011;6595;49.578;11.012;2024-03-07T00:54:24;23.5;;;12.5;;
13057;SDS011;6595;49.578;11.012;2024-03-07T00:56:23;23.5;;;12.5;;
13057;SDS011;6595;49.578;11.012;2024-03-07T00:58:23;23.7;;;12.2;;
13057;SDS011;6595;49.578;11.012;2024-03-07T01:00:23;23.7;;;12.2;;
13057;SDS011;6595;49.578;11.012;2024-03-07T01:02:23;23.3;;;12.8;;
13057;SDS011;6595;49.578;11.012;2024-03-07T01:04:23;25.6;;;12.6;;
13057;SDS011;6595;49.578;11.012;2024-03-07T01:06:23;23.0;;;12.4;;
13057;SDS011;6595;49.578;11.012;2024-03-07T01:08:23;22.8;;;12.2;;
13057;SDS011;6595;49.578;11.012;2024-03-07T01:10:23;22.8;;;12.2;;
13057;SDS011;6595;49.578;11.012;2024-03-07T01:12:23;24.3;;;12.4;;
13057;SDS011;6595;49.578;11.012;2024-03-07T01:14:23;23.2;;;12.5;;
13057;SDS011;6595;49.578;11.012;2024-03-07T01:16:23;23.9;;;12.5;;
13057;SDS011;6595;49.578;11.012;2024-03-07T01:18:23;23.4;;;12.6;;
13057;SDS011;6595;49.578;11.012;2024-03-07T01:20:23;23.4;;;12.6;;
13057;SDS011;6595;49.578;11.012;2024-03-07T01:22:24;24.1;;;12.3;;
13057;SDS011;6595;49.578;11.012;2024-03-07T01:24:24;21.6;;;12.0;;
13057;SDS011;6595;49.578;11.012;2024-03-07T01:26:23;20.6;;;11.5;;
13057;SDS011;6595;49.578;11.012;2024-03-07T01:28:24;20.6;;;11.4;;
13057;SDS011;6595;49.578;11.012;2024-03-07T01:30:23;20.6;;;11.4;;
13057;SDS011;6595;49.578;11.012;2024-03-07T01:32:24;20.6;;;11.4;;
13057;SDS011;6595;49.578;11.012;2024-03-07T01:34:23;21.5;;;11.0;;
13057;SDS011;6595;49.578;11.012;2024-03-07T01:36:24;17.8;;;10.2;;
13057;SDS011;6595;49.578;11.012;2024-03-07T01:38:23;19.8;;;10.4;;
13057;SDS011;6595;49.578;11.012;2024-03-07T01:40:24;19.8;;;10.4;;
13057;SDS011;6595;49.578;11.012;2024-03-07T01:42:24;20.3;;;11.3;;
13057;SDS011;6595;49.578;11.012;2024-03-07T01:44:23;19.7;;;10.7;;
13057;SDS011;6595;49.578;11.012;2024-03-07T01:46:23;18.5;;;10.7;;
13057;SDS011;6595;49.578;11.012;2024-03-07T01:48:25;18.5;;;10.7;;
13057;SDS011;6595;49.578;11.012;2024-03-07T01:50:23;21.3;;;11.4;;
13057;SDS011;6595;49.578;11.012;2024-03-07T01:52:23;21.7;;;10.9;;
13057;SDS011;6595;49.578;11.012;2024-03-07T01:54:23;21.1;;;11.2;;
13057;SDS011;6595;49.578;11.012;2024-03-07T01:56:23;21.1;;;11.2;;
13057;SDS011;6595;49.578;11.012;2024-03-07T01:58:24;19.2;;;10.7;;
13057;SDS011;6595;49.578;11.012;2024-03-07T02:00:23;19.6;;;11.0;;
13057;SDS011;6595;49.578;11.012;2024-03-07T02:02:23;18.7;;;10.2;;
13057;SDS011;6595;49.578;11.012;2024-03-07T02:04:23;17.6;;;10.3;;
13057;SDS011;6595;49.578;11.012;2024-03-07T02:06:23;17.6;;;10.3;;
13057;SDS011;6595;49.578;11.012;2024-03-07T02:08:23;19.9;;;10.8;;
13057;SDS011;6595;49.578;11.012;2024-03-07T02:10:23;19.9;;;10.8;;
13057;SDS011;6595;49.578;11.012;2024-03-07T02:12:23;17.7;;;9.6;;
13057;SDS011;6595;49.578;11.012;2024-03-07T02:14:23;16.9;;;9.6;;
13057;SDS011;6595;49.578;11.012;2024-03-07T02:16:24;16.9;;;9.6;;
13057;SDS011;6595;49.578;11.012;2024-03-07T02:18:23;17.3;;;9.4;;
13057;SDS011;6595;49.578;11.012;2024-03-07T02:20:24;17.5;;;10.0;;
13057;SDS011;6595;49.578;11.012;2024-03-07T02:22:23;17.9;;;9.9;;
13057;SDS011;6595;49.578;11.012;2024-03-07T02:24:24;17.9;;;9.9;;
13057;SDS011;6595;49.578;11.012;2024-03-07T02:26:23;15.4;;;8.8;;
13057;SDS011;6595;49.578;11.012;2024-03-07T02:28:23;15.4;;;8.8;;
13057;SDS011;6595;49.578;11.012;2024-03-07T02:30:23;16.9;;;9.7;;
13057;SDS011;6595;49.578;11.012;2024-03-07T02:32:23;17.8;;;9.3;;
13057;SDS011;6595;49.578;11.012;2024-03-07T02:34:23;17.1;;;9.5;;
13057;SDS011;6595;49.578;11.012;2024-03-07T02:36:23;17.1;;;9.5;;
13057;SDS011;6595;49.578;11.012;2024-03-07T02:38:23;16.0;;;9.9;;
13057;SDS011;6595;49.578;11.012;2024-03-07T02:40:24;17.6;;;9.5;;
13057;SDS011;6595;49.578;11.012;2024-03-07T02:42:23;15.9;;;9.1;;
13057;SDS011;6595;49.578;11.012;2024-03-07T02:44:23;15.9;;;9.1;;
13057;SDS011;6595;49.578;11.012;2024-03-07T02:46:24;15.9;;;9.2;;
13057;SDS011;6595;49.578;11.012;2024-03-07T02:48:24;15.9;;;9.2;;
13057;SDS011;6595;49.578;11.012;2024-03-07T02:50:23;17.6;;;9.7;;
13057;SDS011;6595;49.578;11.012;2024-03-07T02:52:24;16.6;;;9.7;;
13057;SDS011;6595;49.578;11.012;2024-03-07T02:54:23;15.3;;;9.3;;
13057;SDS011;6595;49.578;11.012;2024-03-07T02:56:23;15.3;;;9.3;;
13057;SDS011;6595;49.578;11.012;2024-03-07T02:58:24;16.2;;;9.1;;
13057;SDS011;6595;49.578;11.012;2024-03-07T03:00:23;17.5;;;9.1;;
13057;SDS011;6595;49.578;11.012;2024-03-07T03:02:23;16.2;;;9.7;;
13057;SDS011;6595;49.578;11.012;2024-03-07T03:04:23;17.3;;;9.7;;
13057;SDS011;6595;49.578;11.012;2024-03-07T03:06:23;17.3;;;9.7;;
13057;SDS011;6595;49.578;11.012;2024-03-07T03:08:23;16.0;;;9.5;;
13057;SDS011;6595;49.578;11.012;2024-03-07T03:10:24;16.0;;;9.5;;
13057;SDS011;6595;49.578;11.012;2024-03-07T03:12:23;16.0;;;9.1;;
13057;SDS011;6595;49.578;11.012;2024-03-07T03:14:24;16.2;;;9.5;;
13057;SDS011;6595;49.578;11.012;2024-03-07T03:16:23;16.2;;;9.5;;
13057;SDS011;6595;49.578;11.012;2024-03-07T03:18:23;16.6;;;9.2;;
13057;SDS011;6595;49.578;11.012;2024-03-07T03:20:23;17.7;;;9.8;;
13057;SDS011;6595;49.578;11.012;2024-03-07T03:22:23;17.7;;;9.5;;
13057;SDS011;6595;49.578;11.012;2024-03-07T03:24:23;17.4;;;9.7;;
13057;SDS011;6595;49.578;11.012;2024-03-07T03:26:23;17.4;;;9.7;;
13057;SDS011;6595;49.578;11.012;2024-03-07T03:28:23;16.8;;;9.3;;
13057;SDS011;6595;49.578;11.012;2024-03-07T03:30:23;19.7;;;10.2;;
13057;SDS011;6595;49.578;11.012;2024-03-07T03:32:23;19.4;;;10.3;;
13057;SDS011;6595;49.578;11.012;2024-03-07T03:34:23;16.1;;;9.6;;
13057;SDS011;6595;49.578;11.012;2024-03-07T03:36:23;16.1;;;9.6;;
13057;SDS011;6595;49.578;11.012;2024-03-07T03:38:23;16.0;;;9.6;;
13057;SDS011;6595;49.578;11.012;2024-03-07T03:40:24;15.6;;;9.1;;
13057;SDS011;6595;49.578;11.012;2024-03-07T03:42:23;15.3;;;9.2;;
13057;SDS011;6595;49.578;11.012;2024-03-07T03:44:23;15.3;;;9.2;;
13057;SDS011;6595;49.578;11.012;2024-03-07T03:46:24;17.5;;;10.1;;
13057;SDS011;6595;49.578;11.012;2024-03-07T03:48:23;17.5;;;10.2;;
13057;SDS011;6595;49.578;11.012;2024-03-07T03:50:23;17.5;;;10.2;;
13057;SDS011;6595;49.578;11.012;2024-03-07T03:52:23;17.3;;;9.2;;
13057;SDS011;6595;49.578;11.012;2024-03-07T03:54:23;17.3;;;9.2;;
13057;SDS011;6595;49.578;11.012;2024-03-07T03:56:23;18.8;;;9.5;;
13057;SDS011;6595;49.578;11.012;2024-03-07T03:58:23;18.0;;;9.6;;
13057;SDS011;6595;49.578;11.012;2024-03-07T04:00:24;17.7;;;9.3;;
13057;SDS011;6595;49.578;11.012;2024-03-07T04:02:23;17.2;;;9.4;;
13057;SDS011;6595;49.578;11.012;2024-03-07T04:04:23;17.2;;;9.4;;
13057;SDS011;6595;49.578;11.012;2024-03-07T04:06:24;17.1;;;9.2;;
13057;SDS011;6595;49.578;11.012;2024-03-07T04:08:24;15.6;;;9.5;;
13057;SDS011;6595;49.578;11.012;2024-03-07T04:10:23;18.1;;;10.2;;
13057;SDS011;6595;49.578;11.012;2024-03-07T04:12:23;18.1;;;10.2;;
13057;SDS011;6595;49.578;11.012;2024-03-07T04:14:24;16.1;;;9.6;;
13057;SDS011;6595;49.578;11.012;2024-03-07T04:16:23;18.7;;;9.7;;
13057;SDS011;6595;49.578;11.012;2024-03-07T04:18:23;18.5;;;9.8;;
13057;SDS011;6595;49.578;11.012;2024-03-07T04:20:23;18.5;;;9.8;;
13057;SDS011;6595;49.578;11.012;2024-03-07T04:22:23;18.3;;;9.8;;
13057;SDS011;6595;49.578;11.012;2024-03-07T04:24:23;18.1;;;9.9;;
13057;SDS011;6595;49.578;11.012;2024-03-07T04:26:23;21.2;;;10.5;;
13057;SDS011;6595;49.578;11.012;2024-03-07T04:28:23;18.4;;;9.7;;
13057;SDS011;6595;49.578;11.012;2024-03-07T04:30:23;17.7;;;9.8;;
13057;SDS011;6595;49.578;11.012;2024-03-07T04:32:24;17.7;;;9.8;;
13057;SDS011;6595;49.578;11.012;2024-03-07T04:34:23;19.7;;;10.2;;
13057;SDS011;6595;49.578;11.012;2024-03-07T04:36:23;19.5;;;10.3;;
13057;SDS011;6595;49.578;11.012;2024-03-07T04:38:23;17.9;;;9.4;;
13057;SDS011;6595;49.578;11.012;2024-03-07T04:40:24;18.1;;;10.3;;
13057;SDS011;6595;49.578;11.012;2024-03-07T04:42:23;18.1;;;10.3;;
13057;SDS011;6595;49.578;11.012;2024-03-07T04:44:23;18.2;;;10.1;;
13057;SDS011;6595;49.578;11.012;2024-03-07T04:46:23;18.0;;;10.1;;
13057;SDS011;6595;49.578;11.012;2024-03-07T04:48:24;20.1;;;10.4;;
13057;SDS011;6595;49.578;11.012;2024-03-07T04:50:23;20.1;;;10.4;;
13057;SDS011;6595;49.578;11.012;2024-03-07T04:52:23;18.4;;;10.0;;
13057;SDS011;6595;49.578;11.012;2024-03-07T04:54:24;16.7;;;9.5;;
13057;SDS011;6595;49.578;11.012;2024-03-07T04:56:23;19.1;;;10.2;;
13057;SDS011;6595;49.578;11.012;2024-03-07T04:58:23;18.9;;;10.2;;
13057;SDS011;6595;49.578;11.012;2024-03-07T05:00:24;18.9;;;10.2;;
13057;SDS011;6595;49.578;11.012;2024-03-07T05:02:23;19.9;;;10.5;;
13057;SDS011;6595;49.578;11.012;2024-03-07T05:04:24;17.6;;;10.0;;
13057;SDS011;6595;49.578;11.012;2024-03-07T05:06:23;19.6;;;10.0;;
13057;SDS011;6595;49.578;11.012;2024-03-07T05:08:23;19.7;;;10.6;;
13057;SDS011;6595;49.578;11.012;2024-03-07T05:10:23;19.7;;;10.6;;
13057;SDS011;6595;49.578;11.012;2024-03-07T05:12:23;18.5;;;10.1;;
13057;SDS011;6595;49.578;11.012;2024-03-07T05:14:23;17.1;;;9.7;;
13057;SDS011;6595;49.578;11.012;2024-03-07T05:16:23;20.5;;;10.4;;
13057;SDS011;6595;49.578;11.012;2024-03-07T05:18:23;18.6;;;9.5;;
13057;SDS011;6595;49.578;11.012;2024-03-07T05:20:23;18.6;;;9.5;;
13057;SDS011;6595;49.578;11.012;2024-03-07T05:22:23;20.7;;;10.5;;
13057;SDS011;6595;49.578;11.012;2024-03-07T05:24:23;24.9;;;11.3;;
13057;SDS011;6595;49.578;11.012;2024-03-07T05:26:23;21.7;;;10.4;;
13057;SDS011;6595;49.578;11.012;2024-03-07T05:28:24;21.7;;;10.4;;
13057;SDS011;6595;49.578;11.012;2024-03-07T05:30:23;21.0;;;10.7;;
13057;SDS011;6595;49.578;11.012;2024-03-07T05:32:24;18.4;;;10.0;;
13057;SDS011;6595;49.578;11.012;2024-03-07T05:34:23;18.6;;;9.8;;
13057;SDS011;6595;49.578;11.012;2024-03-07T05:36:23;18.6;;;9.8;;
13057;SDS011;6595;49.578;11.012;2024-03-07T05:38:23;20.5;;;10.3;;
13057;SDS011;6595;49.578;11.012;2024-03-07T05:40:23;20.5;;;10.3;;
13057;SDS011;6595;49.578;11.012;2024-03-07T05:42:23;18.4;;;9.8;;
13057;SDS011;6595;49.578;11.012;2024-03-07T05:44:23;20.2;;;10.0;;
13057;SDS011;6595;49.578;11.012;2024-03-07T05:46:24;18.3;;;10.4;;
13057;SDS011;6595;49.578;11.012;2024-03-07T05:48:23;18.2;;;10.2;;
13057;SDS011;6595;49.578;11.012;2024-03-07T05:50:23;18.2;;;10.2;;
13057;SDS011;6595;49.578;11.012;2024-03-07T05:52:23;20.1;;;10.8;;
13057;SDS011;6595;49.578;11.012;2024-03-07T05:54:23;19.9;;;10.5;;
13057;SDS011;6595;49.578;11.012;2024-03-07T05:56:24;19.9;;;10.5;;
13057;SDS011;6595;49.578;11.012;2024-03-07T05:58:23;18.9;;;10.4;;
13057;SDS011;6595;49.578;11.012;2024-03-07T06:00:23;18.8;;;10.4;;
13057;SDS011;6595;49.578;11.012;2024-03-07T06:02:24;19.4;;;10.6;;
13057;SDS011;6595;49.578;11.012;2024-03-07T06:04:23;19.4;;;10.6;;
13057;SDS011;6595;49.578;11.012;2024-03-07T06:06:24;23.5;;;10.7;;
13057;SDS011;6595;49.578;11.012;2024-03-07T06:08:23;23.5;;;10.7;;
13057;SDS011;6595;49.578;11.012;2024-03-07T06:10:23;19.1;;;10.1;;
13057;SDS011;6595;49.578;11.012;2024-03-07T06:12:24;18.8;;;10.5;;
13057;SDS011;6595;49.578;11.012;2024-03-07T06:14:23;21.1;;;11.1;;
13057;SDS011;6595;49.578;11.012;2024-03-07T06:16:23;19.4;;;10.4;;
13057;SDS011;6595;49.578;11.012;2024-03-07T06:18:23;19.4;;;10.4;;
13057;SDS011;6595;49.578;11.012;2024-03-07T06:20:23;19.0;;;10.3;;
13057;SDS011;6595;49.578;11.012;2024-03-07T06:22:23;21.1;;;11.0;;
13057;SDS011;6595;49.578;11.012;2024-03-07T06:24:23;19.6;;;10.8;;
13057;SDS011;6595;49.578;11.012;2024-03-07T06:26:23;20.7;;;10.5;;
13057;SDS011;6595;49.578;11.012;2024-03-07T06:28:24;20.7;;;10.5;;
13057;SDS011;6595;49.578;11.012;2024-03-07T06:30:23;19.5;;;10.8;;
13057;SDS011;6595;49.578;11.012;2024-03-07T06:32:23;19.7;;;11.1;;
13057;SDS011;6595;49.578;11.012;2024-03-07T06:34:23;19.7;;;10.2;;
13057;SDS011;6595;49.578;11.012;2024-03-07T06:36:23;19.7;;;10.2;;
13057;SDS011;6595;49.578;11.012;2024-03-07T06:38:23;20.3;;;10.9;;
13057;SDS011;6595;49.578;11.012;2024-03-07T06:40:24;20.8;;;10.9;;
13057;SDS011;6595;49.578;11.012;2024-03-07T06:42:23;21.8;;;10.9;;
13057;SDS011;6595;49.578;11.012;2024-03-07T06:44:23;21.8;;;10.9;;
13057;SDS011;6595;49.578;11.012;2024-03-07T06:46:23;20.5;;;10.5;;
13057;SDS011;6595;49.578;11.012;2024-03-07T06:48:23;21.0;;;11.2;;
13057;SDS011;6595;49.578;11.012;2024-03-07T06:50:23;20.6;;;11.1;;
13057;SDS011;6595;49.578;11.012;2024-03-07T06:52:23;21.7;;;11.5;;
13057;SDS011;6595;49.578;11.012;2024-03-07T06:54:24;21.9;;;11.0;;
13057;SDS011;6595;49.578;11.012;2024-03-07T06:56:24;21.9;;;11.0;;
13057;SDS011;6595;49.578;11.012;2024-03-07T06:58:23;19.8;;;10.1;;
13057;SDS011;6595;49.578;11.012;2024-03-07T07:00:23;22.9;;;10.5;;
13057;SDS011;6595;49.578;11.012;2024-03-07T07:02:23;21.0;;;11.1;;
13057;SDS011;6595;49.578;11.012;2024-03-07T07:04:23;21.0;;;11.1;;
13057;SDS011;6595;49.578;11.012;2024-03-07T07:06:24;20.7;;;11.2;;
13057;SDS011;6595;49.578;11.012;2024-03-07T07:08:24;22.0;;;10.9;;
13057;SDS011;6595;49.578;11.012;2024-03-07T07:10:23;23.2;;;11.3;;
13057;SDS011;6595;49.578;11.012;2024-03-07T07:12:23;24.8;;;11.8;;
13057;SDS011;6595;49.578;11.012;2024-03-07T07:14:23;24.8;;;11.8;;
13057;SDS011;6595;49.578;11.012;2024-03-07T07:16:23;21.3;;;11.0;;
13057;SDS011;6595;49.578;11.012;2024-03-07T07:18:24;20.1;;;11.2;;
13057;SDS011;6595;49.578;11.012;2024-03-07T07:20:23;25.3;;;11.5;;
13057;SDS011;6595;49.578;11.012;2024-03-07T07:22:23;24.8;;;11.9;;
13057;SDS011;6595;49.578;11.012;2024-03-07T07:24:23;24.8;;;11.9;;
13057;SDS011;6595;49.578;11.012;2024-03-07T07:26:24;22.5;;;11.4;;
13057;SDS011;6595;49.578;11.012;2024-03-07T07:28:24;24.1;;;11.9;;
13057;SDS011;6595;49.578;11.012;2024-03-07T07:30:23;24.0;;;12.2;;
13057;SDS011;6595;49.578;11.012;2024-03-07T07:32:23;24.0;;;12.2;;
13057;SDS011;6595;49.578;11.012;2024-03-07T07:34:23;22.7;;;12.1;;
13057;SDS011;6595;49.578;11.012;2024-03-07T07:36:23;20.7;;;11.4;;
13057;SDS011;6595;49.578;11.012;2024-03-07T07:38:24;24.5;;;12.2;;
13057;SDS011;6595;49.578;11.012;2024-03-07T07:40:23;24.5;;;12.2;;
13057;SDS011;6595;49.578;11.012;2024-03-07T07:42:23;22.3;;;11.5;;
13057;SDS011;6595;49.578;11.012;2024-03-07T07:44:23;22.7;;;11.5;;
13057;SDS011;6595;49.578;11.012;2024-03-07T07:46:23;24.1;;;11.2;;
13057;SDS011;6595;49.578;11.012;2024-03-07T07:48:24;22.0;;;11.0;;
13057;SDS011;6595;49.578;11.012;2024-03-07T07:50:23;19.7;;;11.0;;
13057;SDS011;6595;49.578;11.012;2024-03-07T07:52:23;29.4;;;12.0;;
13057;SDS011;6595;49.578;11.012;2024-03-07T07:54:24;29.4;;;12.0;;
13057;SDS011;6595;49.578;11.012;2024-03-07T07:56:24;23.3;;;11.8;;
13057;SDS011;6595;49.578;11.012;2024-03-07T07:58:23;24.2;;;11.6;;
13057;SDS011;6595;49.578;11.012;2024-03-07T08:00:24;24.2;;;11.6;;
13057;SDS011;6595;49.578;11.012;2024-03-07T08:02:23;23.2;;;11.5;;
13057;SDS011;6595;49.578;11.012;2024-03-07T08:04:23;23.2;;;11.5;;
13057;SDS011;6595;49.578;11.012;2024-03-07T08:06:24;23.9;;;11.9;;
13057;SDS011;6595;49.578;11.012;2024-03-07T08:08:23;23.1;;;12.0;;
13057;SDS011;6595;49.578;11.012;2024-03-07T08:10:24;20.6;;;11.8;;
13057;SDS011;6595;49.578;11.012;2024-03-07T08:12:23;21.3;;;12.1;;
13057;SDS011;6595;49.578;11.012;2024-03-07T08:14:23;21.3;;;12.1;;
13057;SDS011;6595;49.578;11.012;2024-03-07T08:16:24;27.4;;;12.4;;
13057;SDS011;6595;49.578;11.012;2024-03-07T08:18:23;123.5;;;21.8;;
13057;SDS011;6595;49.578;11.012;2024-03-07T08:20:24;28.2;;;12.3;;
13057;SDS011;6595;49.578;11.012;2024-03-07T08:22:23;22.3;;;10.6;;
13057;SDS011;6595;49.578;11.012;2024-03-07T08:24:24;22.3;;;10.6;;
13057;SDS011;6595;49.578;11.012;2024-03-07T08:26:23;21.3;;;11.2;;
13057;SDS011;6595;49.578;11.012;2024-03-07T08:28:23;22.5;;;11.7;;
13057;SDS011;6595;49.578;11.012;2024-03-07T08:30:24;18.8;;;10.7;;
13057;SDS011;6595;49.578;11.012;2024-03-07T08:32:24;18.8;;;10.7;;
13057;SDS011;6595;49.578;11.012;2024-03-07T08:34:23;21.3;;;11.3;;
13057;SDS011;6595;49.578;11.012;2024-03-07T08:36:23;20.5;;;10.6;;
13057;SDS011;6595;49.578;11.012;2024-03-07T08:38:24;20.5;;;10.6;;
13057;SDS011;6595;49.578;11.012;2024-03-07T08:40:23;21.8;;;10.6;;
13057;SDS011;6595;49.578;11.012;2024-03-07T08:42:23;21.8;;;10.6;;
13057;SDS011;6595;49.578;11.012;2024-03-07T08:44:24;22.7;;;11.5;;
13057;SDS011;6595;49.578;11.012;2024-03-07T08:46:23;21.9;;;10.4;;
13057;SDS011;6595;49.578;11.012;2024-03-07T08:48:24;21.8;;;10.7;;
13057;SDS011;6595;49.578;11.012;2024-03-07T08:50:24;21.8;;;10.7;;
13057;SDS011;6595;49.578;11.012;2024-03-07T08:52:23;21.8;;;11.1;;
13057;SDS011;6595;49.578;11.012;2024-03-07T08:54:23;20.0;;;10.8;;
13057;SDS011;6595;49.578;11.012;2024-03-07T08:56:24;21.9;;;10.0;;
13057;SDS011;6595;49.578;11.012;2024-03-07T08:58:23;20.9;;;11.2;;
13057;SDS011;6595;49.578;11.012;2024-03-07T09:00:23;20.9;;;11.2;;
13057;SDS011;6595;49.578;11.012;2024-03-07T09:02:23;20.4;;;11.0;;
13057;SDS011;6595;49.578;11.012;2024-03-07T09:04:23;22.4;;;10.9;;
13057;SDS011;6595;49.578;11.012;2024-03-07T09:06:23;20.8;;;10.2;;
13057;SDS011;6595;49.578;11.012;2024-03-07T09:08:24;21.7;;;11.7;;
13057;SDS011;6595;49.578;11.012;2024-03-07T09:10:23;21.6;;;11.2;;
13057;SDS011;6595;49.578;11.012;2024-03-07T09:12:24;21.6;;;11.2;;
13057;SDS011;6595;49.578;11.012;2024-03-07T09:14:24;22.6;;;11.0;;
13057;SDS011;6595;49.578;11.012;2024-03-07T09:16:23;21.6;;;11.1;;
13057;SDS011;6595;49.578;11.012;2024-03-07T09:18:24;21.3;;;10.6;;
13057;SDS011;6595;49.578;11.012;2024-03-07T09:20:23;21.3;;;10.6;;
13057;SDS011;6595;49.578;11.012;2024-03-07T09:22:23;21.8;;;11.5;;
13057;SDS011;6595;49.578;11.012;2024-03-07T09:24:23;23.3;;;12.2;;
13057;SDS011;6595;49.578;11.012;2024-03-07T09:26:23;26.4;;;11.4;;
13057;SDS011;6595;49.578;11.012;2024-03-07T09:28:24;20.8;;;11.0;;
13057;SDS011;6595;49.578;11.012;2024-03-07T09:30:23;20.8;;;11.0;;
13057;SDS011;6595;49.578;11.012;2024-03-07T09:32:23;21.5;;;11.5;;
13057;SDS011;6595;49.578;11.012;2024-03-07T09:34:23;21.5;;;11.2;;
13057;SDS011;6595;49.578;11.012;2024-03-07T09:36:23;20.6;;;11.1;;
13057;SDS011;6595;49.578;11.012;2024-03-07T09:38:23;21.6;;;11.2;;
13057;SDS011;6595;49.578;11.012;2024-03-07T09:40:24;21.6;;;11.2;;
13057;SDS011;6595;49.578;11.012;2024-03-07T09:42:23;22.4;;;11.5;;
13057;SDS011;6595;49.578;11.012;2024-03-07T09:44:23;21.5;;;11.3;;
13057;SDS011;6595;49.578;11.012;2024-03-07T09:46:23;21.5;;;11.3;;
13057;SDS011;6595;49.578;11.012;2024-03-07T09:48:23;20.8;;;11.1;;
13057;SDS011;6595;49.578;11.012;2024-03-07T09:50:23;20.8;;;11.1;;
13057;SDS011;6595;49.578;11.012;2024-03-07T09:52:24;21.7;;;11.8;;
13057;SDS011;6595;49.578;11.012;2024-03-07T09:54:23;20.6;;;10.7;;
13057;SDS011;6595;49.578;11.012;2024-03-07T09:56:23;20.6;;;10.7;;
13057;SDS011;6595;49.578;11.012;2024-03-07T09:58:24;20.2;;;11.1;;
13057;SDS011;6595;49.578;11.012;2024-03-07T10:00:23;22.0;;;11.3;;
13057;SDS011;6595;49.578;11.012;2024-03-07T10:02:23;20.1;;;11.3;;
13057;SDS011;6595;49.578;11.012;2024-03-07T10:04:27;19.9;;;11.1;;
13057;SDS011;6595;49.578;11.012;2024-03-07T10:06:23;20.7;;;10.8;;
13057;SDS011;6595;49.578;11.012;2024-03-07T10:08:23;20.7;;;10.8;;
13057;SDS011;6595;49.578;11.012;2024-03-07T10:10:24;19.9;;;10.9;;
13057;SDS011;6595;49.578;11.012;2024-03-07T10:12:23;19.4;;;10.8;;
13057;SDS011;6595;49.578;11.012;2024-03-07T10:14:23;19.6;;;11.0;;
13057;SDS011;6595;49.578;11.012;2024-03-07T10:16:24;20.4;;;11.2;;
13057;SDS011;6595;49.578;11.012;2024-03-07T10:18:23;23.6;;;11.5;;
13057;SDS011;6595;49.578;11.012;2024-03-07T10:20:23;23.6;;;11.5;;
13057;SDS011;6595;49.578;11.012;2024-03-07T10:22:23;21.5;;;10.5;;
13057;SDS011;6595;49.578;11.012;2024-03-07T10:24:24;18.8;;;10.6;;
13057;SDS011;6595;49.578;11.012;2024-03-07T10:26:23;18.8;;;10.6;;
13057;SDS011;6595;49.578;11.012;2024-03-07T10:28:23;18.8;;;10.6;;
13057;SDS011;6595;49.578;11.012;2024-03-07T10:30:24;19.0;;;10.4;;
13057;SDS011;6595;49.578;11.012;2024-03-07T10:32:24;17.5;;;10.0;;
13057;SDS011;6595;49.578;11.012;2024-03-07T10:34:23;18.2;;;10.5;;
13057;SDS011;6595;49.578;11.012;2024-03-07T10:36:23;18.2;;;10.5;;
13057;SDS011;6595;49.578;11.012;2024-03-07T10:38:23;18.2;;;10.4;;
13057;SDS011;6595;49.578;11.012;2024-03-07T10:40:23;17.0;;;10.1;;
13057;SDS011;6595;49.578;11.012;2024-03-07T10:42:23;15.8;;;9.3;;
13057;SDS011;6595;49.578;11.012;2024-03-07T10:44:24;17.2;;;8.7;;
13057;SDS011;6595;49.578;11.012;2024-03-07T10:46:23;17.2;;;8.7;;
13057;SDS011;6595;49.578;11.012;2024-03-07T10:48:24;15.3;;;8.9;;
13057;SDS011;6595;49.578;11.012;2024-03-07T10:50:26;16.3;;;9.3;;
13057;SDS011;6595;49.578;11.012;2024-03-07T10:52:27;15.6;;;8.8;;
13057;SDS011;6595;49.578;11.012;2024-03-07T10:54:25;15.6;;;8.6;;
13057;SDS011;6595;49.578;11.012;2024-03-07T10:56:29;15.6;;;8.6;;
13057;SDS011;6595;49.578;11.012;2024-03-07T10:58:24;15.5;;;9.3;;
13057;SDS011;6595;49.578;11.012;2024-03-07T11:00:23;20.2;;;9.8;;
13057;SDS011;6595;49.578;11.012;2024-03-07T11:02:26;14.1;;;8.5;;
13057;SDS011;6595;49.578;11.012;2024-03-07T11:04:23;14.1;;;8.5;;
13057;SDS011;6595;49.578;11.012;2024-03-07T11:06:23;16.5;;;8.4;;
13057;SDS011;6595;49.578;11.012;2024-03-07T11:08:23;14.5;;;7.8;;
13057;SDS011;6595;49.578;11.012;2024-03-07T11:10:23;12.6;;;7.7;;
13057;SDS011;6595;49.578;11.012;2024-03-07T11:12:24;15.9;;;8.0;;
13057;SDS011;6595;49.578;11.012;2024-03-07T11:14:24;15.2;;;8.0;;
13057;SDS011;6595;49.578;11.012;2024-03-07T11:16:23;15.2;;;8.0;;
13057;SDS011;6595;49.578;11.012;2024-03-07T11:18:23;15.7;;;8.4;;
13057;SDS011;6595;49.578;11.012;2024-03-07T11:20:24;15.0;;;8.1;;
13057;SDS011;6595;49.578;11.012;2024-03-07T11:22:30;15.7;;;8.0;;
13057;SDS011;6595;49.578;11.012;2024-03-07T11:24:24;15.7;;;8.0;;
13057;SDS011;6595;49.578;11.012;2024-03-07T11:26:24;15.2;;;8.6;;
13057;SDS011;6595;49.578;11.012;2024-03-07T11:28:28;17.1;;;9.1;;
13057;SDS011;6595;49.578;11.012;2024-03-07T11:30:24;14.6;;;8.4;;
13057;SDS011;6595;49.578;11.012;2024-03-07T11:32:24;13.4;;;7.1;;
13057;SDS011;6595;49.578;11.012;2024-03-07T11:34:23;13.4;;;7.1;;
13057;SDS011;6595;49.578;11.012;2024-03-07T11:38:30;10.7;;;7.0;;
13057;SDS011;6595;49.578;11.012;2024-03-07T11:42:24;11.4;;;7.2;;
13057;SDS011;6595;49.578;11.012;2024-03-07T11:44:23;11.4;;;7.2;;
13057;SDS011;6595;49.578;11.012;2024-03-07T11:46:24;12.0;;;6.7;;
13057;SDS011;6595;49.578;11.012;2024-03-07T11:48:24;11.7;;;6.9;;
13057;SDS011;6595;49.578;11.012;2024-03-07T11:50:23;12.0;;;7.1;;
13057;SDS011;6595;49.578;11.012;2024-03-07T11:52:23;12.0;;;7.1;;
13057;SDS011;6595;49.578;11.012;2024-03-07T11:54:24;13.0;;;6.9;;
13057;SDS011;6595;49.578;11.012;2024-03-07T11:56:24;12.8;;;7.4;;
13057;SDS011;6595;49.578;11.012;2024-03-07T11:58:23;12.2;;;7.2;;
13057;SDS011;6595;49.578;11.012;2024-03-07T12:00:23;12.2;;;7.2;;
13057;SDS011;6595;49.578;11.012;2024-03-07T12:02:24;11.9;;;7.2;;
13057;SDS011;6595;49.578;11.012;2024-03-07T12:04:23;11.9;;;7.2;;
13057;SDS011;6595;49.578;11.012;2024-03-07T12:06:24;12.4;;;6.6;;
13057;SDS011;6595;49.578;11.012;2024-03-07T12:08:23;11.6;;;6.7;;
13057;SDS011;6595;49.578;11.012;2024-03-07T12:10:23;12.4;;;6.6;;